sensor_id;sensor_type;location;lat;lon;timestamp;P1;durP1;ratioP1;P2;durP2;ratioP2
5684;SDS011;2865;53.114;9.130;2024-01-10T00:00:51;16.40;;;13.00;;
5684;SDS011;2865;53.114;9.130;2024-01-10T00:03:16;16.93;;;13.17;;
5684;SDS011;2865;53.114;9.130;2024-01-10T00:05:41;14.50;;;12.47;;
5684;SDS011;2865;53.114;9.130;2024-01-10T00:08:07;15.40;;;11.70;;
5684;SDS011;2865;53.114;9.130;2024-01-10T00:10:32;13.33;;;10.93;;
5684;SDS011;2865;53.114;9.130;2024-01-10T00:12:57;18.90;;;12.90;;
5684;SDS011;2865;53.114;9.130;2024-01-10T00:15:23;13.90;;;12.00;;
5684;SDS011;2865;53.114;9.130;2024-01-10T00:17:48;17.93;;;12.83;;
5684;SDS011;2865;53.114;9.130;2024-01-10T00:20:14;19.13;;;12.30;;
5684;SDS011;2865;53.114;9.130;2024-01-10T00:22:39;18.00;;;12.90;;
5684;SDS011;2865;53.114;9.130;2024-01-10T00:25:04;20.73;;;13.37;;
5684;SDS011;2865;53.114;9.130;2024-01-10T00:27:30;16.40;;;12.47;;
5684;SDS011;2865;53.114;9.130;2024-01-10T00:29:55;16.87;;;13.13;;
5684;SDS011;2865;53.114;9.130;2024-01-10T00:32:21;12.20;;;10.57;;
5684;SDS011;2865;53.114;9.130;2024-01-10T00:34:46;19.13;;;13.80;;
5684;SDS011;2865;53.114;9.130;2024-01-10T00:37:11;17.40;;;11.63;;
5684;SDS011;2865;53.114;9.130;2024-01-10T00:39:37;16.23;;;12.87;;
5684;SDS011;2865;53.114;9.130;2024-01-10T00:42:02;16.50;;;12.80;;
5684;SDS011;2865;53.114;9.130;2024-01-10T00:44:28;18.98;;;12.88;;
5684;SDS011;2865;53.114;9.130;2024-01-10T00:46:54;17.43;;;13.27;;
5684;SDS011;2865;53.114;9.130;2024-01-10T00:49:19;15.93;;;12.67;;
5684;SDS011;2865;53.114;9.130;2024-01-10T00:51:44;22.33;;;14.73;;
5684;SDS011;2865;53.114;9.130;2024-01-10T00:54:10;15.87;;;13.67;;
5684;SDS011;2865;53.114;9.130;2024-01-10T00:56:35;16.50;;;12.60;;
5684;SDS011;2865;53.114;9.130;2024-01-10T00:59:00;17.37;;;14.07;;
5684;SDS011;2865;53.114;9.130;2024-01-10T01:01:26;22.23;;;14.50;;
5684;SDS011;2865;53.114;9.130;2024-01-10T01:03:51;17.50;;;13.83;;
5684;SDS011;2865;53.114;9.130;2024-01-10T01:06:17;15.43;;;13.20;;
5684;SDS011;2865;53.114;9.130;2024-01-10T01:08:42;18.60;;;12.43;;
5684;SDS011;2865;53.114;9.130;2024-01-10T01:11:07;17.87;;;14.30;;
5684;SDS011;2865;53.114;9.130;2024-01-10T01:13:33;19.80;;;14.50;;
5684;SDS011;2865;53.114;9.130;2024-01-10T01:15:58;17.23;;;13.57;;
5684;SDS011;2865;53.114;9.130;2024-01-10T01:18:23;14.70;;;12.60;;
5684;SDS011;2865;53.114;9.130;2024-01-10T01:20:49;15.83;;;12.50;;
5684;SDS011;2865;53.114;9.130;2024-01-10T01:23:14;15.67;;;12.20;;
5684;SDS011;2865;53.114;9.130;2024-01-10T01:25:40;17.27;;;13.23;;
5684;SDS011;2865;53.114;9.130;2024-01-10T01:28:05;15.83;;;12.40;;
5684;SDS011;2865;53.114;9.130;2024-01-10T01:30:30;14.27;;;12.40;;
5684;SDS011;2865;53.114;9.130;2024-01-10T01:32:56;14.50;;;11.40;;
5684;SDS011;2865;53.114;9.130;2024-01-10T01:35:21;14.40;;;12.47;;
5684;SDS011;2865;53.114;9.130;2024-01-10T01:37:47;14.47;;;12.50;;
5684;SDS011;2865;53.114;9.130;2024-01-10T01:40:12;17.83;;;13.03;;
5684;SDS011;2865;53.114;9.130;2024-01-10T01:42:37;24.63;;;13.37;;
5684;SDS011;2865;53.114;9.130;2024-01-10T01:45:03;15.63;;;11.87;;
5684;SDS011;2865;53.114;9.130;2024-01-10T01:47:28;14.60;;;12.33;;
5684;SDS011;2865;53.114;9.130;2024-01-10T01:49:54;18.07;;;12.40;;
5684;SDS011;2865;53.114;9.130;2024-01-10T01:52:19;14.27;;;11.67;;
5684;SDS011;2865;53.114;9.130;2024-01-10T01:54:45;20.10;;;12.43;;
5684;SDS011;2865;53.114;9.130;2024-01-10T01:57:10;13.80;;;11.70;;
5684;SDS011;2865;53.114;9.130;2024-01-10T01:59:36;13.20;;;11.38;;
5684;SDS011;2865;53.114;9.130;2024-01-10T02:02:02;13.30;;;11.80;;
5684;SDS011;2865;53.114;9.130;2024-01-10T02:04:27;15.67;;;12.40;;
5684;SDS011;2865;53.114;9.130;2024-01-10T02:06:53;17.37;;;12.10;;
5684;SDS011;2865;53.114;9.130;2024-01-10T02:09:18;15.83;;;10.73;;
5684;SDS011;2865;53.114;9.130;2024-01-10T02:11:43;14.20;;;11.53;;
5684;SDS011;2865;53.114;9.130;2024-01-10T02:14:09;12.20;;;10.43;;
5684;SDS011;2865;53.114;9.130;2024-01-10T02:16:34;14.87;;;12.20;;
5684;SDS011;2865;53.114;9.130;2024-01-10T02:19:00;18.00;;;12.77;;
5684;SDS011;2865;53.114;9.130;2024-01-10T02:21:25;18.30;;;13.10;;
5684;SDS011;2865;53.114;9.130;2024-01-10T02:23:50;14.20;;;11.07;;
5684;SDS011;2865;53.114;9.130;2024-01-10T02:26:16;16.90;;;13.90;;
5684;SDS011;2865;53.114;9.130;2024-01-10T02:28:41;17.03;;;11.63;;
5684;SDS011;2865;53.114;9.130;2024-01-10T02:31:07;15.03;;;11.33;;
5684;SDS011;2865;53.114;9.130;2024-01-10T02:33:32;12.00;;;10.70;;
5684;SDS011;2865;53.114;9.130;2024-01-10T02:35:57;12.47;;;9.13;;
5684;SDS011;2865;53.114;9.130;2024-01-10T02:38:23;10.63;;;9.63;;
5684;SDS011;2865;53.114;9.130;2024-01-10T02:40:48;14.43;;;11.07;;
5684;SDS011;2865;53.114;9.130;2024-01-10T02:43:13;16.40;;;11.97;;
5684;SDS011;2865;53.114;9.130;2024-01-10T02:45:39;15.70;;;11.43;;
5684;SDS011;2865;53.114;9.130;2024-01-10T02:48:05;17.00;;;13.33;;
5684;SDS011;2865;53.114;9.130;2024-01-10T02:50:30;13.43;;;11.45;;
5684;SDS011;2865;53.114;9.130;2024-01-10T02:52:56;21.03;;;14.30;;
5684;SDS011;2865;53.114;9.130;2024-01-10T02:55:21;17.87;;;12.93;;
5684;SDS011;2865;53.114;9.130;2024-01-10T02:57:46;19.67;;;13.47;;
5684;SDS011;2865;53.114;9.130;2024-01-10T03:00:12;17.23;;;13.83;;
5684;SDS011;2865;53.114;9.130;2024-01-10T03:02:38;12.93;;;11.48;;
5684;SDS011;2865;53.114;9.130;2024-01-10T03:05:03;15.23;;;11.30;;
5684;SDS011;2865;53.114;9.130;2024-01-10T03:07:30;14.90;;;12.15;;
5684;SDS011;2865;53.114;9.130;2024-01-10T03:09:55;16.10;;;12.73;;
5684;SDS011;2865;53.114;9.130;2024-01-10T03:12:21;14.87;;;12.80;;
5684;SDS011;2865;53.114;9.130;2024-01-10T03:14:46;14.13;;;12.63;;
5684;SDS011;2865;53.114;9.130;2024-01-10T03:17:11;16.00;;;12.80;;
5684;SDS011;2865;53.114;9.130;2024-01-10T03:19:37;16.50;;;12.17;;
5684;SDS011;2865;53.114;9.130;2024-01-10T03:22:02;14.87;;;12.00;;
5684;SDS011;2865;53.114;9.130;2024-01-10T03:24:28;16.83;;;13.20;;
5684;SDS011;2865;53.114;9.130;2024-01-10T03:26:53;17.13;;;12.17;;
5684;SDS011;2865;53.114;9.130;2024-01-10T03:29:19;14.97;;;12.63;;
5684;SDS011;2865;53.114;9.130;2024-01-10T03:31:44;14.73;;;13.10;;
5684;SDS011;2865;53.114;9.130;2024-01-10T03:34:09;16.50;;;12.80;;
5684;SDS011;2865;53.114;9.130;2024-01-10T03:36:35;19.57;;;14.53;;
5684;SDS011;2865;53.114;9.130;2024-01-10T03:39:00;15.20;;;12.40;;
5684;SDS011;2865;53.114;9.130;2024-01-10T03:41:26;15.07;;;12.60;;
5684;SDS011;2865;53.114;9.130;2024-01-10T03:43:51;16.30;;;12.80;;
5684;SDS011;2865;53.114;9.130;2024-01-10T03:46:17;16.43;;;13.13;;
5684;SDS011;2865;53.114;9.130;2024-01-10T03:48:43;17.10;;;13.33;;
5684;SDS011;2865;53.114;9.130;2024-01-10T03:51:15;16.98;;;12.77;;
5684;SDS011;2865;53.114;9.130;2024-01-10T03:53:40;13.52;;;12.23;;
5684;SDS011;2865;53.114;9.130;2024-01-10T03:56:06;17.47;;;12.60;;
5684;SDS011;2865;53.114;9.130;2024-01-10T03:58:32;22.23;;;14.82;;
5684;SDS011;2865;53.114;9.130;2024-01-10T04:00:57;19.20;;;14.60;;
5684;SDS011;2865;53.114;9.130;2024-01-10T04:03:23;20.10;;;13.80;;
5684;SDS011;2865;53.114;9.130;2024-01-10T04:05:48;18.80;;;14.23;;
5684;SDS011;2865;53.114;9.130;2024-01-10T04:08:14;17.00;;;15.00;;
5684;SDS011;2865;53.114;9.130;2024-01-10T04:10:39;19.20;;;14.53;;
5684;SDS011;2865;53.114;9.130;2024-01-10T04:13:04;21.10;;;14.10;;
5684;SDS011;2865;53.114;9.130;2024-01-10T04:15:30;19.73;;;15.50;;
5684;SDS011;2865;53.114;9.130;2024-01-10T04:17:55;22.73;;;15.70;;
5684;SDS011;2865;53.114;9.130;2024-01-10T04:20:21;18.93;;;14.53;;
5684;SDS011;2865;53.114;9.130;2024-01-10T04:22:46;21.93;;;14.13;;
5684;SDS011;2865;53.114;9.130;2024-01-10T04:25:12;23.50;;;14.33;;
5684;SDS011;2865;53.114;9.130;2024-01-10T04:27:37;24.00;;;14.43;;
5684;SDS011;2865;53.114;9.130;2024-01-10T04:30:03;18.07;;;12.97;;
5684;SDS011;2865;53.114;9.130;2024-01-10T04:32:29;19.42;;;14.10;;
5684;SDS011;2865;53.114;9.130;2024-01-10T04:34:54;17.40;;;13.97;;
5684;SDS011;2865;53.114;9.130;2024-01-10T04:37:19;20.10;;;16.00;;
5684;SDS011;2865;53.114;9.130;2024-01-10T04:39:45;18.07;;;14.40;;
5684;SDS011;2865;53.114;9.130;2024-01-10T04:42:10;29.00;;;15.83;;
5684;SDS011;2865;53.114;9.130;2024-01-10T04:44:35;25.43;;;15.63;;
5684;SDS011;2865;53.114;9.130;2024-01-10T04:47:01;24.20;;;14.40;;
5684;SDS011;2865;53.114;9.130;2024-01-10T04:49:26;22.33;;;15.03;;
5684;SDS011;2865;53.114;9.130;2024-01-10T04:51:52;24.53;;;14.60;;
5684;SDS011;2865;53.114;9.130;2024-01-10T04:54:17;27.73;;;16.80;;
5684;SDS011;2865;53.114;9.130;2024-01-10T04:56:42;27.90;;;16.00;;
5684;SDS011;2865;53.114;9.130;2024-01-10T04:59:08;22.10;;;15.30;;
5684;SDS011;2865;53.114;9.130;2024-01-10T05:01:33;23.07;;;15.50;;
5684;SDS011;2865;53.114;9.130;2024-01-10T05:03:58;20.10;;;14.17;;
5684;SDS011;2865;53.114;9.130;2024-01-10T05:06:24;18.87;;;15.70;;
5684;SDS011;2865;53.114;9.130;2024-01-10T05:08:49;19.77;;;14.70;;
5684;SDS011;2865;53.114;9.130;2024-01-10T05:11:15;17.60;;;13.83;;
5684;SDS011;2865;53.114;9.130;2024-01-10T05:13:40;24.47;;;14.97;;
5684;SDS011;2865;53.114;9.130;2024-01-10T05:16:06;22.43;;;15.50;;
5684;SDS011;2865;53.114;9.130;2024-01-10T05:18:31;21.30;;;14.07;;
5684;SDS011;2865;53.114;9.130;2024-01-10T05:20:57;21.47;;;15.10;;
5684;SDS011;2865;53.114;9.130;2024-01-10T05:23:22;19.93;;;15.10;;
5684;SDS011;2865;53.114;9.130;2024-01-10T05:25:48;20.43;;;14.37;;
5684;SDS011;2865;53.114;9.130;2024-01-10T05:28:13;21.17;;;14.00;;
5684;SDS011;2865;53.114;9.130;2024-01-10T05:30:38;23.97;;;15.33;;
5684;SDS011;2865;53.114;9.130;2024-01-10T05:33:04;20.43;;;13.23;;
5684;SDS011;2865;53.114;9.130;2024-01-10T05:35:30;19.07;;;14.57;;
5684;SDS011;2865;53.114;9.130;2024-01-10T05:37:55;23.57;;;13.90;;
5684;SDS011;2865;53.114;9.130;2024-01-10T05:40:21;22.30;;;15.13;;
5684;SDS011;2865;53.114;9.130;2024-01-10T05:42:46;16.20;;;13.20;;
5684;SDS011;2865;53.114;9.130;2024-01-10T05:45:12;21.37;;;13.90;;
5684;SDS011;2865;53.114;9.130;2024-01-10T05:47:37;17.67;;;14.70;;
5684;SDS011;2865;53.114;9.130;2024-01-10T05:50:03;24.57;;;15.00;;
5684;SDS011;2865;53.114;9.130;2024-01-10T05:52:30;17.70;;;13.25;;
5684;SDS011;2865;53.114;9.130;2024-01-10T05:54:55;21.27;;;14.30;;
5684;SDS011;2865;53.114;9.130;2024-01-10T05:57:21;19.80;;;13.70;;
5684;SDS011;2865;53.114;9.130;2024-01-10T05:59:46;18.57;;;13.10;;
5684;SDS011;2865;53.114;9.130;2024-01-10T06:02:12;20.90;;;13.47;;
5684;SDS011;2865;53.114;9.130;2024-01-10T06:04:37;15.93;;;12.13;;
5684;SDS011;2865;53.114;9.130;2024-01-10T06:07:02;14.17;;;11.60;;
5684;SDS011;2865;53.114;9.130;2024-01-10T06:09:28;17.57;;;12.27;;
5684;SDS011;2865;53.114;9.130;2024-01-10T06:11:53;20.23;;;12.97;;
5684;SDS011;2865;53.114;9.130;2024-01-10T06:14:19;15.47;;;13.07;;
5684;SDS011;2865;53.114;9.130;2024-01-10T06:16:44;19.60;;;13.10;;
5684;SDS011;2865;53.114;9.130;2024-01-10T06:19:09;14.83;;;11.33;;
5684;SDS011;2865;53.114;9.130;2024-01-10T06:21:35;15.40;;;12.93;;
5684;SDS011;2865;53.114;9.130;2024-01-10T06:24:00;13.07;;;11.60;;
5684;SDS011;2865;53.114;9.130;2024-01-10T06:26:26;18.73;;;13.60;;
5684;SDS011;2865;53.114;9.130;2024-01-10T06:28:51;15.77;;;12.07;;
5684;SDS011;2865;53.114;9.130;2024-01-10T06:31:16;14.87;;;12.33;;
5684;SDS011;2865;53.114;9.130;2024-01-10T06:33:42;14.93;;;11.20;;
5684;SDS011;2865;53.114;9.130;2024-01-10T06:36:07;15.37;;;13.27;;
5684;SDS011;2865;53.114;9.130;2024-01-10T06:38:33;15.70;;;12.00;;
5684;SDS011;2865;53.114;9.130;2024-01-10T06:40:58;22.27;;;12.10;;
5684;SDS011;2865;53.114;9.130;2024-01-10T06:43:24;18.00;;;12.83;;
5684;SDS011;2865;53.114;9.130;2024-01-10T06:45:49;17.67;;;11.80;;
5684;SDS011;2865;53.114;9.130;2024-01-10T06:48:15;15.90;;;11.47;;
5684;SDS011;2865;53.114;9.130;2024-01-10T06:50:40;16.53;;;11.80;;
5684;SDS011;2865;53.114;9.130;2024-01-10T06:53:06;15.57;;;11.10;;
5684;SDS011;2865;53.114;9.130;2024-01-10T06:55:31;16.63;;;12.30;;
5684;SDS011;2865;53.114;9.130;2024-01-10T06:57:56;14.97;;;12.20;;
5684;SDS011;2865;53.114;9.130;2024-01-10T07:00:22;14.80;;;11.47;;
5684;SDS011;2865;53.114;9.130;2024-01-10T07:02:47;15.07;;;12.50;;
5684;SDS011;2865;53.114;9.130;2024-01-10T07:05:13;16.57;;;13.30;;
5684;SDS011;2865;53.114;9.130;2024-01-10T07:07:38;20.17;;;12.10;;
5684;SDS011;2865;53.114;9.130;2024-01-10T07:10:04;14.20;;;11.23;;
5684;SDS011;2865;53.114;9.130;2024-01-10T07:12:30;14.25;;;11.00;;
5684;SDS011;2865;53.114;9.130;2024-01-10T07:14:55;15.23;;;11.07;;
5684;SDS011;2865;53.114;9.130;2024-01-10T07:17:20;15.60;;;12.23;;
5684;SDS011;2865;53.114;9.130;2024-01-10T07:19:46;14.57;;;11.93;;
5684;SDS011;2865;53.114;9.130;2024-01-10T07:22:11;14.80;;;10.80;;
5684;SDS011;2865;53.114;9.130;2024-01-10T07:24:36;18.03;;;11.73;;
5684;SDS011;2865;53.114;9.130;2024-01-10T07:27:02;15.33;;;11.70;;
5684;SDS011;2865;53.114;9.130;2024-01-10T07:29:27;17.53;;;11.03;;
5684;SDS011;2865;53.114;9.130;2024-01-10T07:31:53;16.67;;;12.40;;
5684;SDS011;2865;53.114;9.130;2024-01-10T07:34:18;16.63;;;11.80;;
5684;SDS011;2865;53.114;9.130;2024-01-10T07:36:43;13.13;;;11.50;;
5684;SDS011;2865;53.114;9.130;2024-01-10T07:39:09;16.80;;;12.67;;
5684;SDS011;2865;53.114;9.130;2024-01-10T07:41:34;13.50;;;11.90;;
5684;SDS011;2865;53.114;9.130;2024-01-10T07:43:59;16.90;;;10.63;;
5684;SDS011;2865;53.114;9.130;2024-01-10T07:46:25;16.97;;;13.43;;
5684;SDS011;2865;53.114;9.130;2024-01-10T07:48:50;21.03;;;13.00;;
5684;SDS011;2865;53.114;9.130;2024-01-10T07:51:16;16.20;;;13.13;;
5684;SDS011;2865;53.114;9.130;2024-01-10T07:53:41;16.03;;;13.60;;
5684;SDS011;2865;53.114;9.130;2024-01-10T07:56:07;19.30;;;11.83;;
5684;SDS011;2865;53.114;9.130;2024-01-10T07:58:32;21.70;;;14.60;;
5684;SDS011;2865;53.114;9.130;2024-01-10T08:00:57;17.37;;;12.73;;
5684;SDS011;2865;53.114;9.130;2024-01-10T08:03:23;16.10;;;13.10;;
5684;SDS011;2865;53.114;9.130;2024-01-10T08:05:48;21.60;;;13.13;;
5684;SDS011;2865;53.114;9.130;2024-01-10T08:08:13;19.00;;;12.47;;
5684;SDS011;2865;53.114;9.130;2024-01-10T08:10:39;21.30;;;13.70;;
5684;SDS011;2865;53.114;9.130;2024-01-10T08:13:04;19.23;;;13.27;;
5684;SDS011;2865;53.114;9.130;2024-01-10T08:15:30;20.17;;;14.20;;
5684;SDS011;2865;53.114;9.130;2024-01-10T08:17:55;19.60;;;14.40;;
5684;SDS011;2865;53.114;9.130;2024-01-10T08:20:21;22.90;;;14.07;;
5684;SDS011;2865;53.114;9.130;2024-01-10T08:22:47;20.20;;;13.43;;
5684;SDS011;2865;53.114;9.130;2024-01-10T08:25:12;15.50;;;12.27;;
5684;SDS011;2865;53.114;9.130;2024-01-10T08:27:37;19.13;;;13.40;;
5684;SDS011;2865;53.114;9.130;2024-01-10T08:30:03;20.17;;;14.00;;
5684;SDS011;2865;53.114;9.130;2024-01-10T08:32:29;20.55;;;14.85;;
5684;SDS011;2865;53.114;9.130;2024-01-10T08:34:54;20.10;;;14.80;;
5684;SDS011;2865;53.114;9.130;2024-01-10T08:37:20;22.40;;;13.87;;
5684;SDS011;2865;53.114;9.130;2024-01-10T08:39:45;16.40;;;13.40;;
5684;SDS011;2865;53.114;9.130;2024-01-10T08:42:10;18.53;;;13.63;;
5684;SDS011;2865;53.114;9.130;2024-01-10T08:44:36;18.27;;;12.67;;
5684;SDS011;2865;53.114;9.130;2024-01-10T08:47:01;19.07;;;13.60;;
5684;SDS011;2865;53.114;9.130;2024-01-10T08:49:27;18.90;;;14.43;;
5684;SDS011;2865;53.114;9.130;2024-01-10T08:51:52;17.73;;;14.33;;
5684;SDS011;2865;53.114;9.130;2024-01-10T08:54:17;20.97;;;14.17;;
5684;SDS011;2865;53.114;9.130;2024-01-10T08:56:43;17.70;;;14.07;;
5684;SDS011;2865;53.114;9.130;2024-01-10T08:59:11;21.65;;;13.20;;
5684;SDS011;2865;53.114;9.130;2024-01-10T09:01:36;16.65;;;12.23;;
5684;SDS011;2865;53.114;9.130;2024-01-10T09:04:01;16.07;;;12.53;;
5684;SDS011;2865;53.114;9.130;2024-01-10T09:06:27;16.10;;;13.20;;
5684;SDS011;2865;53.114;9.130;2024-01-10T09:08:52;18.60;;;12.77;;
5684;SDS011;2865;53.114;9.130;2024-01-10T09:11:17;18.23;;;13.70;;
5684;SDS011;2865;53.114;9.130;2024-01-10T09:13:43;18.10;;;12.30;;
5684;SDS011;2865;53.114;9.130;2024-01-10T09:16:08;19.30;;;12.50;;
5684;SDS011;2865;53.114;9.130;2024-01-10T09:18:34;15.67;;;12.97;;
5684;SDS011;2865;53.114;9.130;2024-01-10T09:20:59;22.43;;;13.40;;
5684;SDS011;2865;53.114;9.130;2024-01-10T09:23:24;21.73;;;12.43;;
5684;SDS011;2865;53.114;9.130;2024-01-10T09:25:50;17.60;;;13.77;;
5684;SDS011;2865;53.114;9.130;2024-01-10T09:28:15;16.60;;;12.23;;
5684;SDS011;2865;53.114;9.130;2024-01-10T09:30:40;16.67;;;11.33;;
5684;SDS011;2865;53.114;9.130;2024-01-10T09:33:06;17.77;;;12.23;;
5684;SDS011;2865;53.114;9.130;2024-01-10T09:35:32;23.77;;;13.13;;
5684;SDS011;2865;53.114;9.130;2024-01-10T09:37:57;21.77;;;13.90;;
5684;SDS011;2865;53.114;9.130;2024-01-10T09:40:22;18.43;;;13.43;;
5684;SDS011;2865;53.114;9.130;2024-01-10T09:42:49;19.30;;;13.53;;
5684;SDS011;2865;53.114;9.130;2024-01-10T09:45:17;21.08;;;13.85;;
5684;SDS011;2865;53.114;9.130;2024-01-10T09:47:43;23.50;;;13.10;;
5684;SDS011;2865;53.114;9.130;2024-01-10T09:50:08;20.63;;;13.00;;
5684;SDS011;2865;53.114;9.130;2024-01-10T09:52:37;25.97;;;13.87;;
5684;SDS011;2865;53.114;9.130;2024-01-10T09:54:59;21.27;;;12.47;;
5684;SDS011;2865;53.114;9.130;2024-01-10T09:57:24;16.60;;;12.73;;
5684;SDS011;2865;53.114;9.130;2024-01-10T09:59:51;17.12;;;11.93;;
5684;SDS011;2865;53.114;9.130;2024-01-10T10:02:16;17.20;;;12.50;;
5684;SDS011;2865;53.114;9.130;2024-01-10T10:04:43;21.87;;;13.30;;
5684;SDS011;2865;53.114;9.130;2024-01-10T10:07:08;19.85;;;13.38;;
5684;SDS011;2865;53.114;9.130;2024-01-10T10:09:33;16.07;;;12.93;;
5684;SDS011;2865;53.114;9.130;2024-01-10T10:11:58;15.77;;;12.67;;
5684;SDS011;2865;53.114;9.130;2024-01-10T10:14:24;20.60;;;13.10;;
5684;SDS011;2865;53.114;9.130;2024-01-10T10:16:49;18.47;;;11.03;;
5684;SDS011;2865;53.114;9.130;2024-01-10T10:19:22;21.20;;;13.50;;
5684;SDS011;2865;53.114;9.130;2024-01-10T10:21:40;19.47;;;12.77;;
5684;SDS011;2865;53.114;9.130;2024-01-10T10:24:05;16.37;;;12.10;;
5684;SDS011;2865;53.114;9.130;2024-01-10T10:26:32;15.60;;;11.63;;
5684;SDS011;2865;53.114;9.130;2024-01-10T10:28:57;21.23;;;12.45;;
5684;SDS011;2865;53.114;9.130;2024-01-10T10:31:23;14.77;;;11.30;;
5684;SDS011;2865;53.114;9.130;2024-01-10T10:33:48;16.63;;;12.27;;
5684;SDS011;2865;53.114;9.130;2024-01-10T10:36:13;22.40;;;12.90;;
5684;SDS011;2865;53.114;9.130;2024-01-10T10:38:38;16.10;;;10.90;;
5684;SDS011;2865;53.114;9.130;2024-01-10T10:41:05;15.13;;;10.90;;
5684;SDS011;2865;53.114;9.130;2024-01-10T10:43:31;16.87;;;12.25;;
5684;SDS011;2865;53.114;9.130;2024-01-10T10:45:55;15.43;;;11.87;;
5684;SDS011;2865;53.114;9.130;2024-01-10T10:48:21;14.60;;;11.17;;
5684;SDS011;2865;53.114;9.130;2024-01-10T10:50:50;11.70;;;9.97;;
5684;SDS011;2865;53.114;9.130;2024-01-10T10:53:27;17.58;;;11.93;;
5684;SDS011;2865;53.114;9.130;2024-01-10T10:55:52;15.97;;;10.87;;
5684;SDS011;2865;53.114;9.130;2024-01-10T10:58:17;16.47;;;10.73;;
5684;SDS011;2865;53.114;9.130;2024-01-10T11:00:43;13.13;;;11.10;;
5684;SDS011;2865;53.114;9.130;2024-01-10T11:03:10;13.27;;;9.77;;
5684;SDS011;2865;53.114;9.130;2024-01-10T11:05:36;14.65;;;10.07;;
5684;SDS011;2865;53.114;9.130;2024-01-10T11:08:01;13.93;;;9.90;;
5684;SDS011;2865;53.114;9.130;2024-01-10T11:10:28;14.73;;;10.43;;
5684;SDS011;2865;53.114;9.130;2024-01-10T11:14:03;15.80;;;10.63;;
5684;SDS011;2865;53.114;9.130;2024-01-10T11:16:31;14.30;;;10.45;;
5684;SDS011;2865;53.114;9.130;2024-01-10T11:18:40;15.52;;;10.45;;
5684;SDS011;2865;53.114;9.130;2024-01-10T11:21:24;12.52;;;9.40;;
5684;SDS011;2865;53.114;9.130;2024-01-10T11:24:08;13.20;;;10.05;;
5684;SDS011;2865;53.114;9.130;2024-01-10T11:26:34;12.03;;;9.80;;
5684;SDS011;2865;53.114;9.130;2024-01-10T11:28:59;11.77;;;9.40;;
5684;SDS011;2865;53.114;9.130;2024-01-10T11:31:28;12.50;;;9.90;;
5684;SDS011;2865;53.114;9.130;2024-01-10T11:33:52;11.77;;;9.27;;
5684;SDS011;2865;53.114;9.130;2024-01-10T11:36:18;14.70;;;9.67;;
5684;SDS011;2865;53.114;9.130;2024-01-10T11:38:48;9.87;;;8.70;;
5684;SDS011;2865;53.114;9.130;2024-01-10T11:41:26;11.15;;;9.23;;
5684;SDS011;2865;53.114;9.130;2024-01-10T11:46:30;21.08;;;10.13;;
5684;SDS011;2865;53.114;9.130;2024-01-10T11:48:56;11.83;;;9.27;;
5684;SDS011;2865;53.114;9.130;2024-01-10T11:51:21;10.27;;;8.77;;
5684;SDS011;2865;53.114;9.130;2024-01-10T11:53:46;9.87;;;8.80;;
5684;SDS011;2865;53.114;9.130;2024-01-10T11:56:13;10.93;;;8.83;;
5684;SDS011;2865;53.114;9.130;2024-01-10T12:01:24;12.70;;;8.52;;
5684;SDS011;2865;53.114;9.130;2024-01-10T12:03:50;9.83;;;8.03;;
5684;SDS011;2865;53.114;9.130;2024-01-10T12:06:15;9.85;;;7.60;;
5684;SDS011;2865;53.114;9.130;2024-01-10T12:08:41;10.03;;;7.90;;
5684;SDS011;2865;53.114;9.130;2024-01-10T12:11:06;10.13;;;9.07;;
5684;SDS011;2865;53.114;9.130;2024-01-10T12:13:31;12.03;;;9.27;;
5684;SDS011;2865;53.114;9.130;2024-01-10T12:15:57;10.00;;;8.83;;
5684;SDS011;2865;53.114;9.130;2024-01-10T12:18:23;11.18;;;8.32;;
5684;SDS011;2865;53.114;9.130;2024-01-10T12:20:49;9.07;;;7.85;;
5684;SDS011;2865;53.114;9.130;2024-01-10T12:23:15;12.43;;;8.20;;
5684;SDS011;2865;53.114;9.130;2024-01-10T12:25:40;14.47;;;7.73;;
5684;SDS011;2865;53.114;9.130;2024-01-10T12:28:05;9.60;;;7.80;;
5684;SDS011;2865;53.114;9.130;2024-01-10T12:30:31;9.63;;;7.93;;
5684;SDS011;2865;53.114;9.130;2024-01-10T12:32:59;10.20;;;9.00;;
5684;SDS011;2865;53.114;9.130;2024-01-10T12:35:22;11.43;;;8.43;;
5684;SDS011;2865;53.114;9.130;2024-01-10T12:37:56;10.03;;;7.93;;
5684;SDS011;2865;53.114;9.130;2024-01-10T12:40:21;11.30;;;8.23;;
5684;SDS011;2865;53.114;9.130;2024-01-10T12:42:47;10.47;;;7.90;;
5684;SDS011;2865;53.114;9.130;2024-01-10T12:47:45;11.50;;;8.60;;
5684;SDS011;2865;53.114;9.130;2024-01-10T12:50:10;12.37;;;9.43;;
5684;SDS011;2865;53.114;9.130;2024-01-10T12:52:36;11.67;;;9.10;;
5684;SDS011;2865;53.114;9.130;2024-01-10T12:55:01;12.40;;;8.37;;
5684;SDS011;2865;53.114;9.130;2024-01-10T12:57:26;10.53;;;8.93;;
5684;SDS011;2865;53.114;9.130;2024-01-10T12:59:52;14.37;;;8.93;;
5684;SDS011;2865;53.114;9.130;2024-01-10T13:02:18;11.80;;;8.57;;
5684;SDS011;2865;53.114;9.130;2024-01-10T13:04:44;12.97;;;8.90;;
5684;SDS011;2865;53.114;9.130;2024-01-10T13:07:09;13.00;;;9.57;;
5684;SDS011;2865;53.114;9.130;2024-01-10T13:09:35;11.03;;;8.63;;
5684;SDS011;2865;53.114;9.130;2024-01-10T13:12:00;9.33;;;8.17;;
5684;SDS011;2865;53.114;9.130;2024-01-10T13:14:25;10.47;;;8.70;;
5684;SDS011;2865;53.114;9.130;2024-01-10T13:16:51;12.00;;;9.40;;
5684;SDS011;2865;53.114;9.130;2024-01-10T13:19:16;11.10;;;8.10;;
5684;SDS011;2865;53.114;9.130;2024-01-10T13:21:41;12.17;;;8.80;;
5684;SDS011;2865;53.114;9.130;2024-01-10T13:24:07;11.77;;;8.70;;
5684;SDS011;2865;53.114;9.130;2024-01-10T13:26:32;13.87;;;9.80;;
5684;SDS011;2865;53.114;9.130;2024-01-10T13:28:58;16.90;;;10.07;;
5684;SDS011;2865;53.114;9.130;2024-01-10T13:31:23;13.43;;;9.88;;
5684;SDS011;2865;53.114;9.130;2024-01-10T13:33:49;17.03;;;10.17;;
5684;SDS011;2865;53.114;9.130;2024-01-10T13:36:14;11.23;;;9.50;;
5684;SDS011;2865;53.114;9.130;2024-01-10T13:38:39;10.17;;;8.70;;
5684;SDS011;2865;53.114;9.130;2024-01-10T13:41:05;8.67;;;7.70;;
5684;SDS011;2865;53.114;9.130;2024-01-10T13:43:30;12.20;;;8.70;;
5684;SDS011;2865;53.114;9.130;2024-01-10T13:45:56;10.07;;;8.43;;
5684;SDS011;2865;53.114;9.130;2024-01-10T13:48:21;14.53;;;8.90;;
5684;SDS011;2865;53.114;9.130;2024-01-10T13:50:47;13.67;;;9.10;;
5684;SDS011;2865;53.114;9.130;2024-01-10T13:53:12;10.87;;;8.23;;
5684;SDS011;2865;53.114;9.130;2024-01-10T13:55:38;11.77;;;8.67;;
5684;SDS011;2865;53.114;9.130;2024-01-10T13:58:03;15.53;;;9.67;;
5684;SDS011;2865;53.114;9.130;2024-01-10T14:00:28;18.20;;;10.30;;
5684;SDS011;2865;53.114;9.130;2024-01-10T14:02:54;12.17;;;8.60;;
5684;SDS011;2865;53.114;9.130;2024-01-10T14:05:19;9.80;;;8.80;;
5684;SDS011;2865;53.114;9.130;2024-01-10T14:07:44;12.53;;;8.87;;
5684;SDS011;2865;53.114;9.130;2024-01-10T14:10:10;13.20;;;8.33;;
5684;SDS011;2865;53.114;9.130;2024-01-10T14:12:36;11.00;;;8.90;;
5684;SDS011;2865;53.114;9.130;2024-01-10T14:15:01;11.10;;;9.00;;
5684;SDS011;2865;53.114;9.130;2024-01-10T14:17:26;14.57;;;8.07;;
5684;SDS011;2865;53.114;9.130;2024-01-10T14:19:52;9.90;;;7.80;;
5684;SDS011;2865;53.114;9.130;2024-01-10T14:22:17;9.90;;;8.00;;
5684;SDS011;2865;53.114;9.130;2024-01-10T14:24:43;13.37;;;9.10;;
5684;SDS011;2865;53.114;9.130;2024-01-10T14:27:08;11.50;;;8.13;;
5684;SDS011;2865;53.114;9.130;2024-01-10T14:29:33;10.90;;;8.33;;
5684;SDS011;2865;53.114;9.130;2024-01-10T14:31:58;16.50;;;8.20;;
5684;SDS011;2865;53.114;9.130;2024-01-10T14:34:24;12.10;;;9.23;;
5684;SDS011;2865;53.114;9.130;2024-01-10T14:36:49;14.37;;;9.07;;
5684;SDS011;2865;53.114;9.130;2024-01-10T14:39:14;10.90;;;7.67;;
5684;SDS011;2865;53.114;9.130;2024-01-10T14:41:40;13.30;;;8.40;;
5684;SDS011;2865;53.114;9.130;2024-01-10T14:44:05;14.10;;;8.63;;
5684;SDS011;2865;53.114;9.130;2024-01-10T14:46:31;11.40;;;8.80;;
5684;SDS011;2865;53.114;9.130;2024-01-10T14:48:56;13.60;;;8.43;;